createdAt,value
2017-09-12T00:00:53.309Z,60.3
2017-09-12T00:01:54.722Z,60.4
2017-09-12T00:02:56.137Z,60.0
2017-09-12T00:03:57.566Z,59.9
2017-09-12T00:04:58.979Z,59.9
2017-09-12T00:06:00.396Z,60.0
2017-09-12T00:07:01.809Z,60.0
2017-09-12T00:08:03.222Z,60.7
2017-09-12T00:09:04.639Z,59.9
2017-09-12T00:10:06.054Z,59.9
2017-09-12T00:11:07.470Z,60.6
2017-09-12T00:12:08.884Z,60.6
2017-09-12T00:13:10.298Z,60.9
2017-09-12T00:14:11.714Z,60.8
2017-09-12T00:15:13.129Z,59.9
2017-09-12T00:16:14.543Z,60.9
2017-09-12T00:17:15.957Z,60.3
2017-09-12T00:18:17.373Z,60.9
2017-09-12T00:19:18.793Z,60.9
2017-09-12T00:20:20.207Z,59.9
2017-09-12T00:21:21.623Z,60.8
2017-09-12T00:22:23.037Z,60.2
2017-09-12T00:23:24.459Z,60.0
2017-09-12T00:24:25.867Z,60.2
2017-09-12T00:25:27.283Z,60.0
2017-09-12T00:26:28.699Z,60.8
2017-09-12T00:27:30.114Z,60.8
2017-09-12T00:28:31.530Z,59.9
2017-09-12T00:29:32.943Z,60.4
2017-09-12T00:30:34.360Z,60.7
2017-09-12T00:31:35.774Z,60.5
2017-09-12T00:32:37.189Z,60.7
2017-09-12T00:33:38.604Z,60.7
2017-09-12T00:34:40.020Z,60.4
2017-09-12T00:35:41.431Z,60.5
2017-09-12T00:36:42.849Z,60.5
2017-09-12T00:37:44.266Z,60.6
2017-09-12T00:38:45.679Z,59.9
2017-09-12T00:39:47.091Z,60.8
2017-09-12T00:40:48.510Z,59.9
2017-09-12T00:41:49.923Z,60.8
2017-09-12T00:42:51.337Z,60.1
2017-09-12T00:43:52.751Z,60.2
2017-09-12T00:44:54.167Z,60.9
2017-09-12T00:45:55.583Z,60.8
2017-09-12T00:46:56.996Z,60.3
2017-09-12T00:47:58.422Z,60.2
2017-09-12T00:48:59.841Z,60.9
2017-09-12T00:50:01.258Z,59.9
2017-09-12T00:51:02.677Z,60.4
2017-09-12T00:52:04.096Z,60.9
2017-09-12T00:53:05.513Z,60.7
2017-09-12T00:54:06.931Z,60.7
2017-09-12T00:55:08.348Z,59.8
2017-09-12T00:56:09.764Z,60.8
2017-09-12T00:57:11.178Z,60.9
2017-09-12T00:58:12.601Z,60.3
2017-09-12T00:59:14.020Z,60.9
2017-09-12T01:00:15.438Z,60.8
2017-09-12T01:01:16.853Z,60.7
2017-09-12T01:02:18.272Z,60.3
2017-09-12T01:03:19.685Z,60.5
2017-09-12T01:04:21.103Z,60.4
2017-09-12T01:05:22.521Z,60.7
2017-09-12T01:06:23.936Z,60.3
2017-09-12T01:07:25.354Z,60.1
2017-09-12T01:08:26.772Z,59.9
2017-09-12T01:09:28.191Z,60.7
2017-09-12T01:10:29.609Z,60.0
2017-09-12T01:11:31.028Z,59.9
2017-09-12T01:12:32.446Z,60.7
2017-09-12T01:13:33.865Z,59.8
2017-09-12T01:14:35.280Z,60.4
2017-09-12T01:15:36.695Z,60.5
2017-09-12T01:16:38.115Z,60.9
2017-09-12T01:17:39.535Z,61.0
2017-09-12T01:18:40.950Z,60.4
2017-09-12T01:19:42.367Z,60.2
2017-09-12T01:20:43.784Z,60.5
2017-09-12T01:23:45.124Z,60.1
2017-09-12T01:24:46.545Z,60.9
2017-09-12T01:25:47.959Z,60.3
2017-09-12T01:26:49.376Z,60.2
2017-09-12T01:27:50.793Z,59.9
2017-09-12T01:28:52.206Z,60.3
2017-09-12T01:29:53.625Z,60.3
2017-09-12T01:30:55.039Z,60.2
2017-09-12T01:31:56.457Z,60.7
2017-09-12T01:32:57.874Z,60.8
2017-09-12T01:33:59.292Z,60.8
2017-09-12T01:35:00.706Z,60.1
2017-09-12T01:36:02.123Z,60.8
2017-09-12T01:37:03.540Z,59.8
2017-09-12T01:38:04.958Z,60.7
2017-09-12T01:39:06.375Z,60.9
2017-09-12T01:40:07.790Z,59.9
2017-09-12T01:41:09.210Z,60.6
2017-09-12T01:42:10.623Z,60.9
2017-09-12T01:43:12.053Z,59.8
2017-09-12T01:44:13.466Z,59.9
2017-09-12T01:45:14.883Z,60.6
2017-09-12T01:46:16.296Z,61.0
2017-09-12T01:47:17.711Z,60.9
2017-09-12T01:48:19.129Z,60.9
2017-09-12T01:49:20.545Z,59.9
2017-09-12T01:50:21.959Z,60.0
2017-09-12T01:51:23.374Z,60.3
2017-09-12T01:52:24.787Z,60.1
2017-09-12T01:53:26.205Z,60.8
2017-09-12T01:54:27.620Z,60.9
2017-09-12T01:55:29.035Z,60.2
2017-09-12T01:56:30.453Z,60.6
2017-09-12T01:57:31.869Z,60.6
2017-09-12T01:58:33.281Z,59.9
2017-09-12T01:59:34.705Z,60.2
2017-09-12T02:00:36.114Z,60.0
2017-09-12T02:01:37.527Z,60.7
2017-09-12T02:02:38.941Z,60.7
2017-09-12T02:03:40.356Z,60.7
2017-09-12T02:04:41.771Z,60.3
2017-09-12T02:05:43.183Z,60.3
2017-09-12T02:06:44.598Z,60.6
2017-09-12T02:07:46.015Z,60.8
2017-09-12T02:08:47.428Z,60.9
2017-09-12T02:09:48.841Z,60.0
2017-09-12T02:10:50.261Z,60.7
2017-09-12T02:11:51.676Z,60.9
2017-09-12T02:12:53.092Z,60.8
2017-09-12T02:13:54.508Z,59.9
2017-09-12T02:14:55.921Z,60.8
2017-09-12T02:15:57.353Z,60.9
2017-09-12T02:16:58.766Z,60.4
2017-09-12T02:18:00.182Z,59.9
2017-09-12T02:19:01.599Z,60.0
2017-09-12T02:20:03.014Z,60.2
2017-09-12T02:21:04.440Z,60.9
2017-09-12T02:22:05.854Z,60.1
2017-09-12T02:23:07.273Z,59.9
2017-09-12T02:24:08.687Z,60.2
2017-09-12T02:25:10.101Z,60.2
2017-09-12T02:26:11.517Z,60.8
2017-09-12T02:27:12.943Z,60.8
2017-09-12T02:28:14.359Z,60.7
2017-09-12T02:29:15.774Z,60.8
2017-09-12T02:30:17.190Z,60.3
2017-09-12T02:31:18.606Z,60.0
2017-09-12T02:32:20.022Z,60.3
2017-09-12T02:33:21.435Z,60.7
2017-09-12T02:34:22.856Z,60.4
2017-09-12T02:35:24.269Z,60.6
2017-09-12T02:36:25.696Z,60.6
2017-09-12T02:37:27.112Z,60.8
2017-09-12T02:38:28.527Z,60.2
2017-09-12T02:39:29.937Z,60.5
2017-09-12T02:40:31.357Z,60.5
2017-09-12T02:41:32.772Z,60.6
2017-09-12T02:42:34.189Z,60.7
2017-09-12T02:43:35.613Z,60.4
2017-09-12T02:44:37.024Z,60.6
2017-09-12T02:45:38.442Z,60.5
2017-09-12T02:46:39.860Z,60.4
2017-09-12T02:47:41.267Z,60.8
2017-09-12T02:48:42.690Z,60.5
2017-09-12T02:49:44.105Z,60.6
2017-09-12T02:50:45.522Z,60.6
2017-09-12T02:51:46.936Z,60.7
2017-09-12T02:52:48.353Z,60.4
2017-09-12T02:53:49.767Z,60.7
2017-09-12T02:54:51.181Z,60.5
2017-09-12T02:55:52.598Z,60.7
2017-09-12T02:56:54.012Z,60.6
2017-09-12T02:57:55.427Z,60.5
2017-09-12T02:58:56.843Z,60.6
2017-09-12T02:59:58.261Z,60.7
2017-09-12T03:00:59.678Z,60.7
2017-09-12T03:02:01.091Z,60.5
2017-09-12T03:03:02.505Z,60.3
2017-09-12T03:04:03.921Z,60.9
2017-09-12T03:05:05.335Z,60.4
2017-09-12T03:06:06.748Z,60.6
2017-09-12T03:07:08.165Z,60.3
2017-09-12T03:08:09.579Z,60.5
2017-09-12T03:09:10.992Z,60.5
2017-09-12T03:10:12.409Z,60.4
2017-09-12T03:11:13.823Z,60.9
2017-09-12T03:12:15.239Z,60.6
2017-09-12T03:13:16.654Z,60.5
2017-09-12T03:14:18.085Z,61.3
2017-09-12T03:15:19.498Z,60.7
2017-09-12T03:16:20.916Z,60.5
2017-09-12T03:17:22.327Z,61.0
2017-09-12T03:18:23.742Z,60.8
2017-09-12T03:19:25.156Z,60.6
2017-09-12T03:20:26.573Z,60.7
2017-09-12T03:21:27.986Z,60.7
2017-09-12T03:22:29.403Z,60.5
2017-09-12T03:23:30.817Z,61.3
2017-09-12T03:24:32.232Z,60.7
2017-09-12T03:25:33.648Z,60.7
2017-09-12T03:26:35.064Z,60.5
2017-09-12T03:27:36.479Z,61.3
2017-09-12T03:28:37.892Z,60.5
2017-09-12T03:29:39.308Z,61.0
2017-09-12T03:30:40.725Z,60.5
2017-09-12T03:31:42.136Z,61.3
2017-09-12T03:32:43.551Z,60.7
2017-09-12T03:33:44.973Z,60.7
2017-09-12T03:34:46.386Z,60.6
2017-09-12T03:35:47.798Z,61.3
2017-09-12T03:36:49.212Z,60.8
2017-09-12T03:37:50.628Z,60.6
2017-09-12T03:38:52.047Z,60.7
2017-09-12T03:39:53.456Z,60.8
2017-09-12T03:40:54.873Z,61.2
2017-09-12T03:41:56.289Z,61.0
2017-09-12T03:42:57.705Z,60.9
2017-09-12T03:43:59.122Z,61.1
2017-09-12T03:45:00.535Z,60.7
2017-09-12T03:46:01.950Z,60.6
2017-09-12T03:47:03.364Z,61.0
2017-09-12T03:48:04.785Z,61.1
2017-09-12T03:49:06.196Z,60.7
2017-09-12T03:50:07.609Z,60.6
2017-09-12T03:51:09.024Z,61.0
2017-09-12T03:52:10.438Z,60.8
2017-09-12T03:53:11.853Z,61.0
2017-09-12T03:54:13.267Z,60.9
2017-09-12T03:55:14.685Z,60.8
2017-09-12T03:56:16.097Z,60.9
2017-09-12T03:57:17.513Z,60.4
2017-09-12T03:58:18.930Z,60.9
2017-09-12T03:59:20.345Z,60.5
2017-09-12T04:00:21.761Z,60.6
2017-09-12T04:01:23.174Z,60.6
2017-09-12T04:02:24.588Z,60.9
2017-09-12T04:03:26.006Z,61.0
2017-09-12T04:04:27.419Z,60.7
2017-09-12T04:05:28.833Z,60.8
2017-09-12T04:06:30.249Z,60.9
2017-09-12T04:07:31.665Z,61.3
2017-09-12T04:08:33.079Z,61.0
2017-09-12T04:09:34.492Z,61.2
2017-09-12T04:10:35.908Z,60.7
2017-09-12T04:11:37.325Z,60.8
2017-09-12T04:12:38.738Z,60.8
2017-09-12T04:13:40.156Z,61.0
2017-09-12T04:14:41.568Z,61.3
2017-09-12T04:15:42.983Z,60.9
2017-09-12T04:16:44.398Z,61.3
2017-09-12T04:17:45.814Z,61.0
2017-09-12T04:18:47.227Z,61.3
2017-09-12T04:19:48.643Z,60.8
2017-09-12T04:20:50.060Z,61.1
2017-09-12T04:21:51.478Z,61.0
2017-09-12T04:22:52.893Z,61.1
2017-09-12T04:23:54.304Z,61.0
2017-09-12T04:24:55.718Z,61.1
2017-09-12T04:25:57.162Z,61.4
2017-09-12T04:26:58.554Z,61.5
2017-09-12T04:27:59.970Z,61.4
2017-09-12T04:29:01.401Z,61.3
2017-09-12T04:30:02.830Z,61.4
2017-09-12T04:31:04.253Z,61.5
2017-09-12T04:32:05.668Z,61.1
2017-09-12T04:33:07.083Z,61.4
2017-09-12T04:34:08.501Z,61.4
2017-09-12T04:35:09.918Z,61.5
2017-09-12T04:36:11.328Z,61.2
2017-09-12T04:37:12.742Z,61.5
2017-09-12T04:38:14.159Z,61.5
2017-09-12T04:39:15.572Z,61.1
2017-09-12T04:40:16.986Z,61.4
2017-09-12T04:41:18.401Z,61.2
2017-09-12T04:42:19.818Z,61.2
2017-09-12T04:43:21.231Z,61.0
2017-09-12T04:44:22.648Z,61.4
2017-09-12T04:45:24.062Z,61.3
2017-09-12T04:46:25.477Z,61.4
2017-09-12T04:47:26.891Z,61.2
2017-09-12T04:48:28.306Z,61.1
2017-09-12T04:49:29.721Z,61.6
2017-09-12T04:50:31.142Z,61.8
2017-09-12T04:51:32.552Z,61.3
2017-09-12T04:52:33.971Z,61.3
2017-09-12T04:53:35.381Z,61.3
2017-09-12T04:54:36.794Z,61.3
2017-09-12T04:55:38.213Z,61.3
2017-09-12T04:56:39.630Z,61.3
2017-09-12T04:57:41.041Z,61.1
2017-09-12T04:58:42.455Z,61.5
2017-09-12T04:59:43.872Z,61.4
2017-09-12T05:00:45.320Z,61.4
2017-09-12T05:01:46.702Z,61.3
2017-09-12T05:02:48.117Z,61.1
2017-09-12T05:03:49.531Z,61.9
2017-09-12T05:04:50.948Z,61.3
2017-09-12T05:05:52.360Z,61.8
2017-09-12T05:06:53.778Z,61.9
2017-09-12T05:07:55.194Z,61.4
2017-09-12T05:08:56.607Z,61.9
2017-09-12T05:09:58.023Z,61.8
2017-09-12T05:10:59.438Z,61.9
2017-09-12T05:12:00.853Z,62.0
2017-09-12T05:13:02.268Z,61.3
2017-09-12T05:14:03.683Z,62.0
2017-09-12T05:15:05.096Z,61.4
2017-09-12T05:16:06.512Z,61.6
2017-09-12T05:17:07.927Z,61.3
2017-09-12T05:18:09.343Z,61.4
2017-09-12T05:19:10.757Z,61.8
2017-09-12T05:20:12.175Z,61.4
2017-09-12T05:21:13.590Z,61.8
2017-09-12T05:22:15.005Z,61.3
2017-09-12T05:23:16.419Z,61.9
2017-09-12T05:24:17.836Z,61.9
2017-09-12T05:25:19.250Z,61.4
2017-09-12T05:26:20.667Z,61.3
2017-09-12T05:27:22.079Z,61.5
2017-09-12T05:29:43.492Z,61.3
2017-09-12T05:30:44.917Z,61.7
2017-09-12T05:31:46.331Z,61.6
2017-09-12T05:32:47.744Z,61.9
2017-09-12T05:33:49.161Z,61.7
2017-09-12T05:34:50.575Z,61.5
2017-09-12T05:35:51.995Z,61.7
2017-09-12T05:36:53.413Z,61.6
2017-09-12T05:37:54.825Z,61.5
2017-09-12T05:38:56.242Z,61.9
2017-09-12T05:39:57.656Z,61.4
2017-09-12T05:40:59.073Z,61.1
2017-09-12T05:42:00.503Z,61.9
2017-09-12T05:43:01.901Z,60.9
2017-09-12T05:44:03.317Z,61.8
2017-09-12T05:45:04.735Z,61.6
2017-09-12T05:46:06.151Z,61.9
2017-09-12T05:47:07.564Z,61.7
2017-09-12T05:48:08.986Z,61.4
2017-09-12T05:49:10.402Z,61.5
2017-09-12T05:50:11.819Z,61.9
2017-09-12T05:51:13.239Z,61.9
2017-09-12T05:52:14.651Z,61.9
2017-09-12T05:53:16.069Z,61.9
2017-09-12T05:54:17.489Z,61.7
2017-09-12T05:55:18.908Z,61.4
2017-09-12T05:56:20.324Z,61.6
2017-09-12T05:57:21.742Z,61.6
2017-09-12T05:58:23.157Z,61.4
2017-09-12T05:59:24.575Z,61.6
2017-09-12T06:00:25.991Z,61.7
2017-09-12T06:01:27.407Z,61.6
2017-09-12T06:02:28.832Z,61.4
2017-09-12T06:03:30.238Z,61.6
2017-09-12T06:04:31.659Z,61.6
2017-09-12T06:05:33.110Z,61.8
2017-09-12T06:06:34.526Z,61.3
2017-09-12T06:07:35.941Z,61.6
2017-09-12T06:08:37.376Z,61.3
2017-09-12T06:09:38.792Z,61.6
2017-09-12T06:10:40.211Z,61.9
2017-09-12T06:11:41.625Z,61.5
2017-09-12T06:12:43.060Z,61.4
2017-09-12T06:13:44.473Z,61.6
2017-09-12T06:14:45.887Z,61.5
2017-09-12T06:15:47.308Z,61.7
2017-09-12T06:16:48.727Z,61.6
2017-09-12T06:17:50.145Z,62.3
2017-09-12T06:18:51.564Z,61.6
2017-09-12T06:19:52.983Z,61.6
2017-09-12T06:20:54.400Z,61.8
2017-09-12T06:21:55.816Z,61.6
2017-09-12T06:22:57.236Z,61.6
2017-09-12T06:23:58.667Z,61.9
2017-09-12T06:25:00.100Z,61.6
2017-09-12T06:26:01.515Z,61.6
2017-09-12T06:27:02.931Z,62.4
2017-09-12T06:28:04.343Z,62.9
2017-09-12T06:29:05.768Z,62.3
2017-09-12T06:30:07.187Z,61.8
2017-09-12T06:31:08.604Z,61.9
2017-09-12T06:33:30.030Z,62.0
2017-09-12T06:34:31.471Z,62.8
2017-09-12T06:35:32.907Z,62.2
2017-09-12T06:36:34.327Z,62.7
2017-09-12T06:37:35.743Z,61.6
2017-09-12T06:38:37.161Z,62.3
2017-09-12T06:39:38.585Z,62.6
2017-09-12T06:40:40.010Z,62.1
2017-09-12T06:41:41.427Z,61.9
2017-09-12T06:42:42.844Z,62.7
2017-09-12T06:43:44.258Z,63.2
2017-09-12T06:44:45.679Z,63.2
2017-09-12T06:45:47.093Z,63.5
2017-09-12T06:46:48.517Z,64.6
2017-09-12T06:47:49.928Z,65.4
2017-09-12T06:48:51.348Z,65.0
2017-09-12T06:49:52.765Z,65.4
2017-09-12T06:50:54.183Z,65.3
2017-09-12T06:51:55.596Z,65.3
2017-09-12T06:52:57.024Z,64.5
2017-09-12T06:53:58.461Z,64.8
2017-09-12T06:54:59.884Z,65.2
2017-09-12T06:56:01.312Z,65.9
2017-09-12T06:57:02.731Z,65.9
2017-09-12T06:58:04.148Z,65.2
2017-09-12T06:59:05.583Z,65.2
2017-09-12T07:00:07.027Z,65.1
2017-09-12T07:01:08.446Z,64.9
2017-09-12T07:02:09.863Z,65.0
2017-09-12T07:03:11.282Z,65.0
2017-09-12T07:04:12.700Z,65.4
2017-09-12T07:05:14.117Z,65.2
2017-09-12T07:06:15.534Z,65.6
2017-09-12T07:07:16.951Z,65.1
2017-09-12T07:08:18.366Z,65.4
2017-09-12T07:09:19.783Z,65.4
2017-09-12T07:10:21.194Z,65.0
2017-09-12T07:11:22.618Z,65.6
2017-09-12T07:12:24.036Z,65.2
2017-09-12T07:13:25.450Z,65.3
2017-09-12T07:14:26.868Z,65.0
2017-09-12T07:15:28.288Z,64.7
2017-09-12T07:16:29.708Z,64.9
2017-09-12T07:17:31.121Z,65.3
2017-09-12T07:18:32.546Z,65.2
2017-09-12T07:19:33.962Z,65.1
2017-09-12T07:20:35.405Z,64.7
2017-09-12T07:21:36.841Z,64.7
2017-09-12T07:22:38.257Z,64.6
2017-09-12T07:23:39.675Z,64.5
2017-09-12T07:24:41.094Z,64.4
2017-09-12T07:25:42.514Z,64.8
2017-09-12T07:26:43.936Z,64.9
2017-09-12T07:27:45.348Z,64.4
2017-09-12T07:28:46.764Z,64.9
2017-09-12T07:29:48.184Z,64.4
2017-09-12T07:30:49.601Z,64.9
2017-09-12T07:31:51.018Z,64.9
2017-09-12T07:32:52.441Z,64.3
2017-09-12T07:33:53.856Z,64.6
2017-09-12T07:34:55.279Z,63.9
2017-09-12T07:35:56.697Z,64.0
2017-09-12T07:36:58.116Z,63.9
2017-09-12T07:37:59.534Z,64.3
2017-09-12T07:39:00.951Z,64.3
2017-09-12T07:40:02.364Z,64.9
2017-09-12T07:41:03.780Z,64.6
2017-09-12T07:42:05.207Z,63.7
2017-09-12T07:43:06.617Z,63.5
2017-09-12T07:44:08.034Z,63.6
2017-09-12T07:45:09.454Z,63.9
2017-09-12T07:46:10.886Z,63.8
2017-09-12T07:47:12.305Z,63.6
2017-09-12T07:48:13.721Z,63.2
2017-09-12T07:49:15.138Z,63.8
2017-09-12T07:50:16.558Z,63.3
2017-09-12T07:51:17.974Z,63.2
2017-09-12T07:52:19.393Z,63.6
2017-09-12T07:53:20.809Z,63.7
2017-09-12T07:54:22.227Z,63.2
2017-09-12T07:55:23.649Z,63.1
2017-09-12T07:56:25.064Z,63.3
2017-09-12T07:57:26.486Z,63.2
2017-09-12T07:58:27.908Z,63.2
2017-09-12T07:59:29.327Z,63.8
2017-09-12T08:00:30.745Z,63.6
2017-09-12T08:01:32.162Z,63.8
2017-09-12T08:02:33.636Z,62.8
2017-09-12T08:03:35.046Z,62.8
2017-09-12T08:04:36.466Z,63.2
2017-09-12T08:05:37.887Z,62.9
2017-09-12T08:06:39.301Z,62.7
2017-09-12T08:07:40.721Z,63.1
2017-09-12T08:08:42.143Z,63.2
2017-09-12T08:09:43.557Z,63.3
2017-09-12T08:10:44.975Z,62.9
2017-09-12T08:11:46.403Z,62.9
2017-09-12T08:12:47.821Z,62.6
2017-09-12T08:13:49.241Z,63.4
2017-09-12T08:14:50.656Z,62.8
2017-09-12T08:15:52.074Z,63.3
2017-09-12T08:16:53.490Z,63.3
2017-09-12T08:17:54.907Z,62.9
2017-09-12T08:18:56.324Z,63.4
2017-09-12T08:19:57.740Z,63.2
2017-09-12T08:20:59.163Z,62.8
2017-09-12T08:22:00.603Z,62.7
2017-09-12T08:23:02.021Z,63.2
2017-09-12T08:24:03.436Z,63.0
2017-09-12T08:25:04.855Z,62.9
2017-09-12T08:26:06.276Z,62.7
2017-09-12T08:27:07.691Z,63.2
2017-09-12T08:28:09.108Z,62.4
2017-09-12T08:29:10.527Z,63.3
2017-09-12T08:30:11.953Z,62.4
2017-09-12T08:31:13.364Z,63.3
2017-09-12T08:32:14.782Z,63.2
2017-09-12T08:33:16.201Z,62.9
2017-09-12T08:34:17.619Z,62.6
2017-09-12T08:35:19.035Z,62.8
2017-09-12T08:36:20.461Z,62.4
2017-09-12T08:37:21.943Z,62.8
2017-09-12T08:38:23.362Z,62.9
2017-09-12T08:39:24.779Z,62.3
2017-09-12T08:40:26.197Z,62.7
2017-09-12T08:41:27.613Z,62.4
2017-09-12T08:42:29.030Z,62.5
2017-09-12T08:43:30.448Z,62.3
2017-09-12T08:44:31.865Z,62.4
2017-09-12T08:45:33.272Z,62.4
2017-09-12T08:46:34.705Z,62.4
2017-09-12T08:47:36.122Z,62.5
2017-09-12T08:48:37.560Z,62.3
2017-09-12T08:49:38.983Z,62.7
2017-09-12T08:50:40.399Z,62.6
2017-09-12T08:51:41.818Z,62.6
2017-09-12T08:52:43.246Z,62.7
2017-09-12T08:53:44.662Z,62.1
2017-09-12T08:54:46.079Z,62.8
2017-09-12T08:55:47.493Z,62.1
2017-09-12T08:56:48.906Z,62.0
2017-09-12T08:57:50.329Z,62.1
2017-09-12T08:58:51.748Z,62.7
2017-09-12T08:59:53.168Z,62.0
2017-09-12T09:00:54.584Z,61.9
2017-09-12T09:01:56.003Z,62.5
2017-09-12T09:02:57.430Z,61.8
2017-09-12T09:03:58.848Z,61.9
2017-09-12T09:05:00.298Z,62.2
2017-09-12T09:06:01.762Z,61.6
2017-09-12T09:07:03.177Z,62.2
2017-09-12T09:08:04.596Z,62.3
2017-09-12T09:09:06.013Z,62.3
2017-09-12T09:10:07.429Z,62.1
2017-09-12T09:11:08.849Z,61.6
2017-09-12T09:12:10.265Z,62.3
2017-09-12T09:13:11.714Z,61.9
2017-09-12T09:14:13.133Z,62.1
2017-09-12T09:15:14.549Z,62.2
2017-09-12T09:16:15.978Z,62.0
2017-09-12T09:17:17.389Z,62.4
2017-09-12T09:18:18.806Z,61.5
2017-09-12T09:19:20.236Z,61.5
2017-09-12T09:20:21.684Z,61.4
2017-09-12T09:21:23.103Z,62.3
2017-09-12T09:22:24.523Z,62.2
2017-09-12T09:23:25.944Z,61.5
2017-09-12T09:24:27.363Z,61.3
2017-09-12T09:25:28.779Z,61.6
2017-09-12T09:26:30.189Z,61.9
2017-09-12T09:27:31.629Z,62.4
2017-09-12T09:28:33.047Z,61.7
2017-09-12T09:29:34.488Z,61.9
2017-09-12T09:30:35.939Z,61.8
2017-09-12T09:31:37.353Z,61.7
2017-09-12T09:32:38.771Z,61.8
2017-09-12T09:33:40.189Z,62.0
2017-09-12T09:34:41.607Z,61.6
2017-09-12T09:35:43.026Z,61.5
2017-09-12T09:36:44.450Z,61.8
2017-09-12T09:37:45.862Z,61.7
2017-09-12T09:38:47.278Z,61.1
2017-09-12T09:39:48.697Z,61.9
2017-09-12T09:40:50.113Z,61.7
2017-09-12T09:41:51.530Z,62.0
2017-09-12T09:42:52.951Z,61.3
2017-09-12T09:43:54.376Z,61.6
2017-09-12T09:44:55.796Z,61.3
2017-09-12T09:45:57.216Z,61.4
2017-09-12T09:46:58.633Z,61.0
2017-09-12T09:48:00.051Z,61.3
2017-09-12T09:49:01.465Z,61.4
2017-09-12T09:50:02.884Z,61.4
2017-09-12T09:51:04.303Z,61.4
2017-09-12T09:52:05.725Z,61.1
2017-09-12T09:53:07.141Z,61.0
2017-09-12T09:54:08.558Z,61.0
2017-09-12T09:55:09.981Z,61.2
2017-09-12T09:56:11.394Z,60.8
2017-09-12T09:57:12.813Z,61.0
2017-09-12T09:58:14.231Z,60.8
2017-09-12T09:59:15.651Z,60.8
2017-09-12T10:00:17.072Z,60.8
2017-09-12T10:01:18.492Z,60.7
2017-09-12T10:02:19.909Z,60.8
2017-09-12T10:03:21.326Z,60.8
2017-09-12T10:04:22.742Z,61.0
2017-09-12T10:05:24.163Z,61.0
2017-09-12T10:06:25.581Z,61.0
2017-09-12T10:07:27.000Z,61.2
2017-09-12T10:08:28.419Z,61.1
2017-09-12T10:09:29.837Z,61.1
2017-09-12T10:10:31.255Z,60.7
2017-09-12T10:11:32.674Z,60.7
2017-09-12T10:12:34.092Z,61.2
2017-09-12T10:13:35.509Z,61.2
2017-09-12T10:14:36.929Z,60.7
2017-09-12T10:15:38.349Z,60.7
2017-09-12T10:16:39.770Z,60.7
2017-09-12T10:17:41.189Z,60.7
2017-09-12T10:18:42.607Z,60.7
2017-09-12T10:19:44.025Z,60.7
2017-09-12T10:20:45.453Z,60.7
2017-09-12T10:21:46.865Z,60.6
2017-09-12T10:22:48.284Z,60.8
2017-09-12T10:23:49.701Z,60.2
2017-09-12T10:24:51.120Z,60.8
2017-09-12T10:25:52.548Z,60.7
2017-09-12T10:26:53.966Z,60.1
2017-09-12T10:27:55.385Z,59.9
2017-09-12T10:28:56.805Z,60.2
2017-09-12T10:29:58.229Z,60.5
2017-09-12T10:30:59.647Z,59.8
2017-09-12T10:32:01.078Z,60.1
2017-09-12T10:33:02.498Z,60.1
2017-09-12T10:34:03.916Z,59.5
2017-09-12T10:35:05.340Z,59.6
2017-09-12T10:36:06.760Z,59.4
2017-09-12T10:37:08.181Z,59.4
2017-09-12T10:38:09.601Z,59.4
2017-09-12T10:39:11.019Z,59.2
2017-09-12T10:40:12.434Z,59.8
2017-09-12T10:41:13.855Z,59.6
2017-09-12T10:42:15.276Z,59.2
2017-09-12T10:43:16.694Z,59.3
2017-09-12T10:44:18.111Z,59.4
2017-09-12T10:45:19.532Z,58.9
2017-09-12T10:46:20.949Z,59.1
2017-09-12T10:47:22.368Z,59.6
2017-09-12T10:48:23.786Z,59.3
2017-09-12T10:49:25.208Z,59.6
2017-09-12T10:50:26.627Z,58.6
2017-09-12T10:51:28.070Z,58.7
2017-09-12T10:52:29.470Z,59.0
2017-09-12T10:53:30.889Z,58.9
2017-09-12T10:54:32.308Z,58.5
2017-09-12T10:55:33.732Z,58.7
2017-09-12T10:56:35.152Z,58.2
2017-09-12T10:57:36.574Z,59.0
2017-09-12T10:58:38.007Z,58.6
2017-09-12T10:59:39.427Z,58.4
2017-09-12T11:00:40.848Z,58.6
2017-09-12T11:01:42.266Z,58.5
2017-09-12T11:02:43.683Z,58.7
2017-09-12T11:03:45.103Z,58.7
2017-09-12T11:04:46.525Z,58.6
2017-09-12T11:05:47.945Z,58.5
2017-09-12T11:06:49.367Z,58.6
2017-09-12T11:07:50.783Z,58.6
2017-09-12T11:08:52.202Z,58.1
2017-09-12T11:09:53.628Z,58.0
2017-09-12T11:10:55.044Z,58.3
2017-09-12T11:11:56.462Z,58.1
2017-09-12T11:12:57.883Z,58.4
2017-09-12T11:13:59.315Z,58.3
2017-09-12T11:15:00.764Z,58.5
2017-09-12T11:16:02.191Z,58.4
2017-09-12T11:17:03.609Z,58.4
2017-09-12T11:18:05.029Z,58.1
2017-09-12T11:19:06.448Z,58.3
2017-09-12T11:20:07.873Z,58.2
2017-09-12T11:21:09.293Z,58.1
2017-09-12T11:22:10.712Z,58.4
2017-09-12T11:23:12.129Z,58.2
2017-09-12T11:24:13.552Z,58.2
2017-09-12T11:25:14.970Z,58.1
2017-09-12T11:26:16.391Z,57.8
2017-09-12T11:27:17.814Z,58.4
2017-09-12T11:28:19.233Z,57.7
2017-09-12T11:29:20.652Z,58.0
2017-09-12T11:30:22.093Z,57.7
2017-09-12T11:31:23.514Z,58.0
2017-09-12T11:32:24.942Z,57.7
2017-09-12T11:33:26.364Z,57.8
2017-09-12T11:34:27.784Z,57.7
2017-09-12T11:35:29.235Z,57.6
2017-09-12T11:36:30.657Z,57.5
2017-09-12T11:37:32.096Z,57.7
2017-09-12T11:38:33.514Z,57.6
2017-09-12T11:39:34.933Z,57.6
2017-09-12T11:40:36.354Z,57.2
2017-09-12T11:41:37.776Z,57.3
2017-09-12T11:42:39.197Z,57.6
2017-09-12T11:43:40.620Z,57.0
2017-09-12T11:44:42.041Z,57.1
2017-09-12T11:45:43.459Z,57.2
2017-09-12T11:46:44.879Z,57.0
2017-09-12T11:47:46.299Z,57.2
2017-09-12T11:48:47.710Z,57.2
2017-09-12T11:49:49.140Z,57.2
2017-09-12T11:50:50.587Z,57.3
2017-09-12T11:51:52.008Z,57.4
2017-09-12T11:52:53.430Z,57.3
2017-09-12T11:53:54.850Z,57.4
2017-09-12T11:54:56.269Z,56.9
2017-09-12T11:55:57.691Z,57.1
2017-09-12T11:56:59.111Z,57.0
2017-09-12T11:58:00.539Z,57.4
2017-09-12T11:59:01.958Z,57.3
2017-09-12T12:00:03.383Z,57.2
2017-09-12T12:01:04.801Z,57.1
2017-09-12T12:02:06.222Z,57.1
2017-09-12T12:03:07.642Z,56.5
2017-09-12T12:04:09.065Z,56.8
2017-09-12T12:05:10.483Z,56.6
2017-09-12T12:06:11.903Z,56.5
2017-09-12T12:07:13.322Z,56.5
2017-09-12T12:08:14.772Z,56.3
2017-09-12T12:09:16.197Z,57.1
2017-09-12T12:10:17.626Z,56.3
2017-09-12T12:11:19.054Z,56.6
2017-09-12T12:12:20.474Z,56.5
2017-09-12T12:13:21.897Z,56.6
2017-09-12T12:14:23.320Z,56.7
2017-09-12T12:15:24.737Z,56.8
2017-09-12T12:16:26.158Z,56.1
2017-09-12T12:17:27.580Z,56.4
2017-09-12T12:18:29.003Z,56.4
2017-09-12T12:19:30.423Z,56.5
2017-09-12T12:20:31.841Z,56.4
2017-09-12T12:21:33.260Z,56.2
2017-09-12T12:22:34.718Z,56.2
2017-09-12T12:23:36.136Z,55.8
2017-09-12T12:24:37.556Z,56.0
2017-09-12T12:25:38.983Z,56.1
2017-09-12T12:26:40.413Z,56.2
2017-09-12T12:27:41.882Z,55.8
2017-09-12T12:28:43.470Z,56.0
2017-09-12T12:29:44.897Z,55.9
2017-09-12T12:30:46.311Z,56.0
2017-09-12T12:31:47.732Z,55.9
2017-09-12T12:32:49.153Z,55.9
2017-09-12T12:33:50.574Z,56.1
2017-09-12T12:34:51.996Z,55.8
2017-09-12T12:35:53.420Z,55.5
2017-09-12T12:36:54.844Z,55.7
2017-09-12T12:37:56.271Z,55.5
2017-09-12T12:38:57.693Z,55.8
2017-09-12T12:39:59.112Z,55.8
2017-09-12T12:41:00.534Z,55.6
2017-09-12T12:42:01.964Z,55.0
2017-09-12T12:43:03.388Z,55.1
2017-09-12T12:44:04.811Z,54.9
2017-09-12T12:45:06.232Z,54.8
2017-09-12T12:46:07.653Z,54.7
2017-09-12T12:47:09.074Z,54.6
2017-09-12T12:48:10.496Z,54.7
2017-09-12T12:49:11.948Z,55.0
2017-09-12T12:50:13.338Z,54.8
2017-09-12T12:51:14.762Z,54.8
2017-09-12T12:52:16.182Z,54.7
2017-09-12T12:53:17.608Z,55.0
2017-09-12T12:54:19.032Z,54.3
2017-09-12T12:55:20.483Z,54.6
2017-09-12T12:56:21.906Z,54.6
2017-09-12T12:57:23.334Z,54.7
2017-09-12T12:58:24.753Z,54.7
2017-09-12T12:59:26.212Z,54.0
2017-09-12T13:00:27.662Z,54.2
2017-09-12T13:01:29.055Z,54.2
2017-09-12T13:02:30.476Z,54.0
2017-09-12T13:03:31.898Z,54.3
2017-09-12T13:04:33.319Z,54.1
2017-09-12T13:05:34.739Z,54.0
2017-09-12T13:06:36.160Z,54.1
2017-09-12T13:07:37.577Z,54.4
2017-09-12T13:08:39.003Z,54.2
2017-09-12T13:09:40.424Z,54.3
2017-09-12T13:10:41.845Z,54.8
2017-09-12T13:11:43.266Z,54.7
2017-09-12T13:12:44.691Z,54.8
2017-09-12T13:13:46.121Z,54.7
2017-09-12T13:14:47.542Z,54.5
2017-09-12T13:15:48.964Z,54.6
2017-09-12T13:16:50.385Z,54.4
2017-09-12T13:17:51.853Z,54.6
2017-09-12T13:18:53.261Z,54.4
2017-09-12T13:19:54.682Z,55.0
2017-09-12T13:20:56.104Z,54.4
2017-09-12T13:21:57.521Z,54.6
2017-09-12T13:22:58.942Z,54.9
2017-09-12T13:24:00.422Z,54.9
2017-09-12T13:25:01.845Z,54.9
2017-09-12T13:26:03.265Z,54.6
2017-09-12T13:27:04.684Z,54.7
2017-09-12T13:28:06.105Z,54.7
2017-09-12T13:29:07.525Z,54.7
2017-09-12T13:30:08.943Z,54.7
2017-09-12T13:31:10.361Z,54.6
2017-09-12T13:32:11.787Z,55.0
2017-09-12T13:33:13.218Z,55.0
2017-09-12T13:34:14.638Z,55.8
2017-09-12T13:35:16.059Z,55.2
2017-09-12T13:36:17.481Z,55.3
2017-09-12T13:37:18.904Z,55.6
2017-09-12T13:38:20.323Z,55.8
2017-09-12T13:39:21.742Z,55.8
2017-09-12T13:40:23.163Z,55.3
2017-09-12T13:41:24.583Z,55.4
2017-09-12T13:42:26.003Z,55.7